Terminal Aerodrome Forecast
Issued by NWS

Home | Current Version | Previous Version | Text Only | Print | Product List | Glossary On
Versions: 1 2 3 4 5 6 7 8 9 10 11 12 13 14 15 16
000
FTUS46 KMTR 230500
TAFSJC
TAF
KSJC 230530Z 2306/2406 30009KT P6SM FEW012
     FM231900 32012KT P6SM FEW015
     FM240300 30009KT P6SM FEW012=

USA.gov is the U.S. government's official web portal to all federal, state and local government web resources and services.